Time;durP1;ratioP1;P1;durP2;ratioP2;P2;SDS_P1;SDS_P2;PMS_P1;PMS_P2;Temp;Humidity;BMP_temperature;BMP_pressure;BME280_temperature;BME280_humidity;BME280_pressure;Samples;Min_cycle;Max_cycle;Signal;HPM_P1;HPM_P2
2023/09/16 00:01:33;;;;;;;11.00;6.10;;;;;;;14.12;95.11;100940.13;4942526;28;20205;-77
2023/09/16 00:03:59;;;;;;;6.60;6.00;;;;;;;14.09;95.50;100928.78;4945743;28;20211;-77
2023/09/16 00:06:27;;;;;;;7.03;6.43;;;;;;;14.06;95.01;100927.16;4945153;28;20213;-77
2023/09/16 00:08:54;;;;;;;6.07;5.47;;;;;;;14.04;94.89;100929.09;4950163;28;20274;-77
2023/09/16 00:11:21;;;;;;;6.50;5.90;;;;;;;14.00;94.81;100927.59;4943407;28;20216;-77
2023/09/16 00:13:48;;;;;;;6.17;5.67;;;;;;;13.98;94.82;100934.03;4940371;28;20233;-77
2023/09/16 00:16:15;;;;;;;6.20;5.60;;;;;;;13.92;94.71;100921.97;4943328;28;20216;-77
2023/09/16 00:18:42;;;;;;;7.03;6.33;;;;;;;13.91;95.09;100925.63;4943271;28;21379;-77
2023/09/16 00:21:10;;;;;;;6.80;5.73;;;;;;;13.88;94.90;100925.84;4946422;28;20228;-76
2023/09/16 00:23:38;;;;;;;6.70;6.10;;;;;;;13.83;94.73;100917.28;4942641;28;20209;-77
2023/09/16 00:26:04;;;;;;;6.77;6.07;;;;;;;13.78;94.76;100917.63;4941340;28;20285;-77
2023/09/16 00:28:31;;;;;;;6.80;6.23;;;;;;;13.76;95.64;100918.72;4943483;28;20240;-77
2023/09/16 00:31:00;;;;;;;6.70;5.93;;;;;;;13.72;95.47;100918.06;4944719;28;20300;-77
2023/09/16 00:33:27;;;;;;;8.93;7.33;;;;;;;13.69;95.65;100920.97;4953570;28;20240;-76
2023/09/16 00:35:54;;;;;;;7.37;6.67;;;;;;;13.67;96.48;100922.88;4947668;28;20232;-77
2023/09/16 00:38:21;;;;;;;6.93;6.20;;;;;;;13.66;96.49;100915.81;4946294;28;20231;-77
2023/09/16 00:40:49;;;;;;;7.60;6.40;;;;;;;13.65;97.16;100930.16;4955022;28;20213;-77
2023/09/16 00:43:15;;;;;;;8.47;6.50;;;;;;;13.65;97.30;100918.59;4948916;28;20209;-77
2023/09/16 00:45:42;;;;;;;8.20;6.00;;;;;;;13.64;97.33;100911.53;4958001;22;20681;-80
2023/09/16 00:48:09;;;;;;;7.53;6.77;;;;;;;13.63;97.54;100915.19;5017139;28;20299;-81
2023/09/16 00:50:35;;;;;;;7.50;6.47;;;;;;;13.61;97.55;100915.31;5015815;28;20222;-80
2023/09/16 00:53:03;;;;;;;6.70;6.10;;;;;;;13.58;97.04;100909.31;5017474;28;20212;-80
2023/09/16 00:55:29;;;;;;;6.40;5.47;;;;;;;13.52;96.85;100910.59;5019565;28;20302;-81
2023/09/16 00:57:58;;;;;;;6.33;5.50;;;;;;;13.47;97.61;100908.25;5017527;28;20604;-80
2023/09/16 01:00:27;;;;;;;5.60;5.10;;;;;;;13.45;96.75;100899.47;5024725;28;20209;-80
2023/09/16 01:02:54;;;;;;;5.87;5.37;;;;;;;13.36;96.65;100896.63;5022563;28;20256;-80
2023/09/16 01:05:21;;;;;;;6.47;5.87;;;;;;;13.31;96.88;100885.38;5024812;28;20206;-80
2023/09/16 01:07:47;;;;;;;6.43;5.83;;;;;;;13.27;97.56;100889.22;5012891;28;20241;-80
2023/09/16 01:10:14;;;;;;;7.00;6.40;;;;;;;13.24;98.23;100890.31;5019639;28;20221;-80
2023/09/16 01:12:41;;;;;;;8.37;6.13;;;;;;;13.23;98.32;100887.75;5014683;28;20655;-80
2023/09/16 01:15:11;;;;;;;7.20;6.17;;;;;;;13.20;98.13;100900.38;5015796;28;20206;-80
2023/09/16 01:17:43;;;;;;;6.80;6.10;;;;;;;13.20;98.33;100894.16;5011602;28;20226;-81
2023/09/16 01:20:13;;;;;;;8.50;6.50;;;;;;;13.19;98.77;100903.16;5022470;28;20206;-80
2023/09/16 01:22:44;;;;;;;6.63;5.97;;;;;;;13.18;99.20;100899.63;5014024;28;20265;-81
2023/09/16 01:25:13;;;;;;;7.27;6.03;;;;;;;13.17;98.62;100900.59;5016712;28;20216;-80
2023/09/16 01:27:39;;;;;;;6.63;6.03;;;;;;;13.13;98.91;100888.34;5010463;28;20238;-81
2023/09/16 01:30:08;;;;;;;5.83;5.33;;;;;;;13.09;99.23;100897.53;5017481;28;20203;-80
2023/09/16 01:32:41;;;;;;;6.13;5.53;;;;;;;13.07;99.44;100896.81;5013683;28;20211;-80
2023/09/16 01:35:11;;;;;;;7.17;6.07;;;;;;;13.04;99.74;100890.81;5011356;28;20226;-80
2023/09/16 01:37:39;;;;;;;6.53;5.93;;;;;;;13.02;99.62;100893.59;5017280;28;20223;-81
2023/09/16 01:40:10;;;;;;;6.00;5.50;;;;;;;13.00;99.50;100897.34;5013538;28;20204;-80
2023/09/16 01:42:38;;;;;;;6.47;5.87;;;;;;;12.98;99.83;100891.25;5012027;28;20203;-80
2023/09/16 01:45:07;;;;;;;7.43;6.80;;;;;;;12.96;100.00;100885.16;5016629;28;20203;-80
2023/09/16 01:47:33;;;;;;;6.90;6.30;;;;;;;12.95;100.00;100889.63;5022268;28;20238;-80
2023/09/16 01:50:00;;;;;;;7.07;6.40;;;;;;;12.94;100.00;100885.25;5021745;28;20202;-80
2023/09/16 01:52:26;;;;;;;6.83;6.13;;;;;;;12.92;100.00;100879.16;5020975;28;20740;-81
2023/09/16 01:54:53;;;;;;;5.80;5.30;;;;;;;12.86;100.00;100875.09;5020221;28;20207;-80
2023/09/16 01:57:19;;;;;;;6.10;5.50;;;;;;;12.82;99.61;100886.09;5019474;28;20226;-80
2023/09/16 01:59:47;;;;;;;6.20;5.60;;;;;;;12.76;100.00;100883.84;5015284;28;20206;-79
2023/09/16 02:02:14;;;;;;;6.10;5.50;;;;;;;12.74;100.00;100886.63;5023016;28;20210;-79
2023/09/16 02:04:43;;;;;;;7.80;6.97;;;;;;;12.74;100.00;100883.09;5018757;28;20368;-80
2023/09/16 02:07:10;;;;;;;7.60;6.70;;;;;;;12.74;100.00;100891.09;5024697;28;20234;-80
2023/09/16 02:09:36;;;;;;;7.23;6.60;;;;;;;12.75;100.00;100880.31;5014495;28;20228;-81
2023/09/16 02:12:03;;;;;;;7.03;6.00;;;;;;;12.74;100.00;100886.63;5019053;28;20203;-80
2023/09/16 02:14:30;;;;;;;7.33;5.87;;;;;;;12.70;100.00;100890.47;5021203;28;20213;-81
2023/09/16 02:16:57;;;;;;;7.77;6.30;;;;;;;12.61;99.71;100877.75;5027346;28;20225;-81
2023/09/16 02:19:25;;;;;;;9.73;6.10;;;;;;;12.52;98.92;100876.56;5018268;28;20213;-79
2023/09/16 02:21:52;;;;;;;6.07;5.47;;;;;;;12.42;98.51;100872.78;5025467;28;20231;-80
2023/09/16 02:24:18;;;;;;;5.90;5.30;;;;;;;12.39;99.13;100870.31;5033702;28;20207;-80
2023/09/16 02:26:45;;;;;;;8.80;6.40;;;;;;;12.37;99.50;100876.72;5025064;28;20242;-80
2023/09/16 02:29:11;;;;;;;7.03;6.30;;;;;;;12.34;100.00;100880.47;5026391;28;20228;-79
2023/09/16 02:31:37;;;;;;;8.27;6.80;;;;;;;12.29;100.00;100869.22;5013061;28;20377;-79
2023/09/16 02:34:05;;;;;;;7.03;6.40;;;;;;;12.26;100.00;100876.59;5017958;28;20217;-80
2023/09/16 02:36:32;;;;;;;7.93;6.67;;;;;;;12.27;100.00;100872.97;5013227;28;20604;-79
2023/09/16 02:38:58;;;;;;;7.67;6.73;;;;;;;12.28;100.00;100883.53;5020914;28;20217;-79
2023/09/16 02:41:25;;;;;;;7.90;7.20;;;;;;;12.29;100.00;100890.59;5016935;28;20316;-80
2023/09/16 02:43:51;;;;;;;8.47;7.53;;;;;;;12.33;100.00;100886.78;5017873;28;20211;-80
2023/09/16 02:46:18;;;;;;;8.63;7.80;;;;;;;12.34;100.00;100880.47;5020354;28;20223;-80
2023/09/16 02:48:44;;;;;;;8.80;7.90;;;;;;;12.35;100.00;100890.19;5017350;28;20226;-80
2023/09/16 02:51:12;;;;;;;8.70;7.20;;;;;;;12.37;100.00;100890.06;5018244;28;20214;-80
2023/09/16 02:53:39;;;;;;;11.03;7.50;;;;;;;12.38;100.00;100889.09;5024455;28;20210;-79
2023/09/16 02:56:07;;;;;;;8.50;7.20;;;;;;;12.36;100.00;100883.88;5020409;28;20225;-80
2023/09/16 02:58:34;;;;;;;8.87;7.97;;;;;;;12.36;100.00;100883.88;5018301;28;20305;-80
2023/09/16 03:01:00;;;;;;;9.10;7.60;;;;;;;12.38;100.00;100873.94;5023182;28;20269;-80
2023/09/16 03:03:27;;;;;;;6.33;5.73;;;;;;;12.37;100.00;100871.38;5013511;28;20244;-80
2023/09/16 03:05:53;;;;;;;10.53;6.60;;;;;;;12.28;100.00;100869.34;5021774;28;20203;-80
2023/09/16 03:08:21;;;;;;;7.30;6.60;;;;;;;12.18;100.00;100866.44;5023146;28;20242;-80
2023/09/16 03:10:48;;;;;;;7.40;6.63;;;;;;;12.14;100.00;100865.78;5016328;28;20212;-80
2023/09/16 03:13:14;;;;;;;9.97;6.50;;;;;;;12.14;100.00;100868.44;5017766;28;20214;-79
2023/09/16 03:15:45;;;;;;;7.20;6.50;;;;;;;12.14;100.00;100865.78;5018158;28;20206;-79
2023/09/16 03:18:11;;;;;;;8.27;7.13;;;;;;;12.15;100.00;100869.31;5018617;28;20222;-80
2023/09/16 03:20:38;;;;;;;8.53;7.60;;;;;;;12.15;100.00;100864.81;5019104;28;20203;-80
2023/09/16 03:23:04;;;;;;;8.90;7.93;;;;;;;12.16;100.00;100876.34;5023956;28;20210;-79
2023/09/16 03:25:32;;;;;;;8.70;7.70;;;;;;;12.19;100.00;100862.78;5011138;28;20208;-80
2023/09/16 03:28:00;;;;;;;8.80;7.77;;;;;;;12.20;100.00;100863.63;5015340;28;20244;-80
2023/09/16 03:30:27;;;;;;;9.33;8.50;;;;;;;12.21;100.00;100866.19;5016175;28;20676;-79
2023/09/16 03:32:53;;;;;;;9.00;8.13;;;;;;;12.23;100.00;100866.09;5014288;28;20206;-80
2023/09/16 03:35:21;;;;;;;9.57;8.60;;;;;;;12.21;100.00;100858.19;5011477;28;20235;-79
2023/09/16 03:37:47;;;;;;;9.83;7.40;;;;;;;12.20;100.00;100861.81;5017124;28;20246;-80
2023/09/16 03:40:14;;;;;;;8.50;7.70;;;;;;;12.19;100.00;100862.78;5016753;28;20205;-80
2023/09/16 03:42:42;;;;;;;8.87;7.70;;;;;;;12.20;100.00;100863.63;5020903;28;20228;-80
2023/09/16 03:45:09;;;;;;;8.57;7.67;;;;;;;12.18;100.00;100861.09;5028873;28;20210;-80
2023/09/16 03:47:35;;;;;;;9.63;7.90;;;;;;;12.15;100.00;100866.63;5027925;28;20234;-80
2023/09/16 03:50:02;;;;;;;7.90;7.10;;;;;;;12.13;100.00;100863.19;5028600;28;20233;-79
2023/09/16 03:52:29;;;;;;;9.67;8.10;;;;;;;12.12;100.00;100859.69;5016199;28;20225;-79
2023/09/16 03:54:55;;;;;;;8.17;7.37;;;;;;;12.11;100.00;100860.63;5011507;28;20298;-79
2023/09/16 03:57:22;;;;;;;7.93;7.23;;;;;;;12.08;100.00;100855.50;5015365;28;20243;-80
2023/09/16 03:59:49;;;;;;;8.50;7.70;;;;;;;12.08;100.00;100851.97;5011304;28;20218;-79
2023/09/16 04:02:16;;;;;;;8.70;7.90;;;;;;;12.07;100.00;100848.44;5016972;28;20210;-79
2023/09/16 04:04:43;;;;;;;9.87;7.57;;;;;;;12.08;100.00;100852.81;5018873;28;20205;-79
2023/09/16 04:07:09;;;;;;;9.53;8.03;;;;;;;12.07;100.00;100850.25;5018943;28;20237;-80
2023/09/16 04:09:36;;;;;;;11.80;7.93;;;;;;;12.07;100.00;100848.44;5012457;28;20232;-79
2023/09/16 04:12:02;;;;;;;11.10;8.47;;;;;;;12.07;100.00;100842.25;5019092;28;20211;-79
2023/09/16 04:14:29;;;;;;;8.70;7.80;;;;;;;12.06;100.00;100840.53;5016030;28;20318;-80
2023/09/16 04:16:57;;;;;;;8.50;7.43;;;;;;;12.06;100.00;100841.38;5022461;28;20575;-80
2023/09/16 04:19:23;;;;;;;9.40;8.00;;;;;;;12.08;100.00;100839.47;5023087;28;20199;-80
2023/09/16 04:21:50;;;;;;;9.50;8.60;;;;;;;12.07;100.00;100839.56;5020067;28;20600;-80
2023/09/16 04:24:16;;;;;;;9.20;8.10;;;;;;;12.08;100.00;100836.81;5014452;28;20216;-81
2023/09/16 04:26:42;;;;;;;10.27;7.90;;;;;;;12.08;100.00;100835.94;5011236;28;20230;-79
2023/09/16 04:29:09;;;;;;;8.60;7.80;;;;;;;12.06;100.00;100828.03;5021439;28;20245;-79
2023/09/16 04:31:35;;;;;;;8.60;7.80;;;;;;;12.05;100.00;100841.50;5013441;28;20718;-79
2023/09/16 04:34:04;;;;;;;8.43;7.53;;;;;;;12.04;100.00;100840.63;5008620;28;20206;-79
2023/09/16 04:36:30;;;;;;;9.97;7.93;;;;;;;12.04;100.00;100839.78;5007070;28;20654;-79
2023/09/16 04:38:57;;;;;;;9.50;8.50;;;;;;;12.03;100.00;100846.94;5011008;28;20225;-78
2023/09/16 04:41:24;;;;;;;10.23;8.27;;;;;;;12.02;100.00;100837.19;5021714;28;20241;-79
2023/09/16 04:43:51;;;;;;;9.70;8.67;;;;;;;12.01;100.00;100831.97;5010420;28;20684;-79
2023/09/16 04:46:18;;;;;;;8.77;7.97;;;;;;;12.00;100.00;100832.94;5014952;28;20830;-80
2023/09/16 04:48:44;;;;;;;8.03;7.03;;;;;;;11.99;100.00;100839.25;5013158;28;20226;-79
2023/09/16 04:51:12;;;;;;;8.30;7.50;;;;;;;11.98;100.00;100846.41;5014682;28;20669;-80
2023/09/16 04:53:39;;;;;;;10.93;8.73;;;;;;;11.98;100.00;100846.41;5009903;28;20246;-80
2023/09/16 04:56:06;;;;;;;9.20;8.30;;;;;;;11.98;100.00;100842.88;5012541;28;20231;-80
2023/09/16 04:58:32;;;;;;;8.10;7.27;;;;;;;11.98;100.00;100842.88;5018804;28;20233;-79
2023/09/16 05:00:59;;;;;;;9.30;7.13;;;;;;;11.95;100.00;100843.91;5016050;28;20215;-79
2023/09/16 05:03:26;;;;;;;7.90;7.10;;;;;;;11.94;100.00;100839.53;5021134;28;20203;-80
2023/09/16 05:05:53;;;;;;;9.03;7.10;;;;;;;11.94;100.00;100842.22;5020265;28;20214;-79
2023/09/16 05:08:21;;;;;;;8.87;7.17;;;;;;;11.93;100.00;100834.31;5019750;28;20238;-79
2023/09/16 05:10:53;;;;;;;11.53;8.13;;;;;;;11.94;100.00;100844.03;5014597;28;20214;-79
2023/09/16 05:13:19;;;;;;;8.27;7.50;;;;;;;11.93;100.00;100835.16;5009479;28;20237;-79
2023/09/16 05:15:47;;;;;;;10.40;7.33;;;;;;;11.93;100.00;100836.97;5020976;28;20207;-79
2023/09/16 05:18:13;;;;;;;8.40;7.37;;;;;;;11.90;100.00;100837.16;5018642;28;20622;-79
2023/09/16 05:20:40;;;;;;;7.77;6.67;;;;;;;11.87;100.00;100848.03;5006369;28;20214;-79
2023/09/16 05:23:06;;;;;;;7.17;6.57;;;;;;;11.85;100.00;100849.94;5012750;28;20557;-79
2023/09/16 05:25:35;;;;;;;8.37;7.27;;;;;;;11.83;100.00;100842.91;5014292;28;20310;-80
2023/09/16 05:28:01;;;;;;;8.67;7.57;;;;;;;11.84;100.00;100841.09;5010936;28;20241;-79
2023/09/16 05:30:28;;;;;;;11.10;8.00;;;;;;;11.88;100.00;100849.75;5009476;28;20230;-78
2023/09/16 05:32:54;;;;;;;10.67;8.57;;;;;;;11.92;100.00;100843.25;5017213;28;20222;-79
2023/09/16 05:35:21;;;;;;;10.60;8.13;;;;;;;11.95;100.00;100835.06;5014327;28;20214;-79
2023/09/16 05:37:47;;;;;;;10.07;8.27;;;;;;;12.00;100.00;100836.44;5021423;28;20225;-80
2023/09/16 05:40:14;;;;;;;10.60;8.27;;;;;;;12.02;100.00;100833.69;5004742;28;20225;-79
2023/09/16 05:42:41;;;;;;;9.60;8.60;;;;;;;12.04;100.00;100837.09;5017381;28;20203;-79
2023/09/16 05:45:10;;;;;;;9.27;8.37;;;;;;;12.08;100.00;100838.63;5015264;28;20198;-79
2023/09/16 05:47:36;;;;;;;10.13;9.13;;;;;;;12.12;100.00;100843.66;5009360;28;20658;-79
2023/09/16 05:50:03;;;;;;;11.40;9.27;;;;;;;12.16;100.00;100847.00;5011398;28;20243;-79
2023/09/16 05:52:30;;;;;;;9.33;8.43;;;;;;;12.20;100.00;100837.78;5009864;28;20265;-79
2023/09/16 05:54:58;;;;;;;10.20;9.20;;;;;;;12.24;100.00;100843.78;5008728;28;20202;-78
2023/09/16 05:57:24;;;;;;;9.80;8.90;;;;;;;12.29;100.00;100841.66;5007486;28;20222;-79
2023/09/16 05:59:52;;;;;;;10.13;9.03;;;;;;;12.34;100.00;100845.75;5011774;28;20199;-80
2023/09/16 06:02:19;;;;;;;11.53;9.43;;;;;;;12.39;100.00;100843.59;5017895;28;20202;-79
2023/09/16 06:04:45;;;;;;;9.57;8.67;;;;;;;12.44;100.00;100844.16;5013709;28;20200;-80
2023/09/16 06:07:11;;;;;;;9.57;8.60;;;;;;;12.50;100.00;100846.41;5017070;28;20227;-79
2023/09/16 06:09:38;;;;;;;9.50;8.60;;;;;;;12.56;100.00;100833.59;5012938;28;20895;-80
2023/09/16 06:12:05;;;;;;;10.00;9.00;;;;;;;12.62;100.00;100843.84;5019023;28;20218;-79
2023/09/16 06:14:32;;;;;;;9.80;8.77;;;;;;;12.68;100.00;100849.66;5011729;28;20210;-79
2023/09/16 06:16:59;;;;;;;9.90;8.90;;;;;;;12.75;100.00;100847.38;5020463;28;20249;-79
2023/09/16 06:19:27;;;;;;;9.53;8.63;;;;;;;12.81;100.00;100838.94;5011060;28;20645;-79
2023/09/16 06:21:54;;;;;;;9.83;8.83;;;;;;;12.89;100.00;100849.97;5014664;28;20211;-79
2023/09/16 06:24:21;;;;;;;11.17;8.83;;;;;;;12.98;100.00;100843.13;5011851;28;20207;-79
2023/09/16 06:26:47;;;;;;;9.37;8.57;;;;;;;13.07;100.00;100840.66;5016035;28;20235;-79
2023/09/16 06:29:14;;;;;;;9.83;8.93;;;;;;;13.14;100.00;100844.59;5012318;28;20264;-79
2023/09/16 06:31:40;;;;;;;10.33;8.43;;;;;;;13.23;100.00;100839.63;5017638;28;20203;-79
2023/09/16 06:34:08;;;;;;;9.60;8.73;;;;;;;13.31;100.00;100834.56;5010085;28;20212;-79
2023/09/16 06:36:38;;;;;;;9.70;8.70;;;;;;;13.39;100.00;100834.88;5026324;28;20198;-79
2023/09/16 06:39:07;;;;;;;10.03;7.80;;;;;;;13.48;100.00;100829.69;5017246;28;20614;-80
2023/09/16 06:41:33;;;;;;;9.03;8.17;;;;;;;13.56;100.00;100831.81;5017173;28;20982;-79
2023/09/16 06:44:00;;;;;;;10.43;8.57;;;;;;;13.64;100.00;100829.44;5009796;28;20210;-79
2023/09/16 06:46:26;;;;;;;8.83;8.03;;;;;;;13.73;100.00;100834.13;5009102;28;20225;-79
2023/09/16 06:48:53;;;;;;;9.23;8.33;;;;;;;13.84;100.00;100833.31;5014159;28;20210;-79
2023/09/16 06:51:21;;;;;;;9.40;8.40;;;;;;;13.94;100.00;100830.81;5015377;28;20214;-79
2023/09/16 06:53:47;;;;;;;9.37;8.47;;;;;;;14.05;100.00;100830.88;5011799;28;20211;-79
2023/09/16 06:56:13;;;;;;;8.77;7.97;;;;;;;14.14;100.00;100830.19;5018896;28;20199;-78
2023/09/16 06:58:40;;;;;;;10.20;7.77;;;;;;;14.20;100.00;100825.22;5011144;28;20231;-80
2023/09/16 07:01:10;;;;;;;8.87;8.00;;;;;;;14.28;100.00;100838.03;5017504;28;20195;-80
2023/09/16 07:03:36;;;;;;;8.60;7.80;;;;;;;14.39;100.00;100829.16;5016641;28;20257;-80
2023/09/16 07:06:03;;;;;;;8.70;7.80;;;;;;;14.47;100.00;100833.03;5014170;28;20587;-79
2023/09/16 07:08:31;;;;;;;10.50;8.60;;;;;;;14.58;100.00;100834.88;5015635;28;20226;-81
2023/09/16 07:10:57;;;;;;;9.67;7.97;;;;;;;14.71;100.00;100835.63;5012759;28;20223;-79
2023/09/16 07:13:23;;;;;;;10.90;9.03;;;;;;;14.81;100.00;100831.25;5014939;28;20211;-80
2023/09/16 07:15:53;;;;;;;9.10;7.83;;;;;;;14.92;100.00;100833.94;5017737;28;20210;-80
2023/09/16 07:18:19;;;;;;;9.37;8.43;;;;;;;15.04;100.00;100829.47;5016677;28;20574;-80
2023/09/16 07:20:46;;;;;;;8.70;7.90;;;;;;;15.16;100.00;100828.47;5018300;28;20201;-79
2023/09/16 07:23:12;;;;;;;9.60;7.90;;;;;;;15.26;100.00;100834.81;5019672;28;20809;-80
2023/09/16 07:25:40;;;;;;;8.43;7.63;;;;;;;15.40;100.00;100832.88;5012936;28;20215;-80
2023/09/16 07:28:07;;;;;;;7.60;6.67;;;;;;;15.51;99.40;100827.47;5023646;28;20232;-80
2023/09/16 07:30:34;;;;;;;9.03;8.13;;;;;;;15.64;98.48;100828.22;5014025;28;20232;-80
2023/09/16 07:33:01;;;;;;;9.00;8.10;;;;;;;15.76;97.48;100821.00;5014827;28;20225;-79
2023/09/16 07:35:28;;;;;;;8.87;7.97;;;;;;;15.83;95.58;100825.72;5017299;28;20203;-80
2023/09/16 07:37:54;;;;;;;9.07;8.10;;;;;;;15.93;95.45;100829.38;5013997;28;20233;-80
2023/09/16 07:40:21;;;;;;;10.57;7.60;;;;;;;16.08;94.99;100829.06;5017400;28;20611;-80
2023/09/16 07:42:49;;;;;;;9.03;8.03;;;;;;;16.17;94.04;100821.06;5012022;28;20613;-80
2023/09/16 07:45:15;;;;;;;8.43;7.33;;;;;;;16.32;93.86;100832.38;5019167;28;20206;-79
2023/09/16 07:47:42;;;;;;;9.60;6.57;;;;;;;16.46;93.40;100832.06;5009083;28;21038;-79
2023/09/16 07:50:09;;;;;;;9.60;7.73;;;;;;;16.62;93.12;100829.78;5015829;28;20694;-80
2023/09/16 07:52:35;;;;;;;9.43;7.70;;;;;;;16.77;91.99;100827.63;5011808;28;20230;-80
2023/09/16 07:55:02;;;;;;;7.77;7.07;;;;;;;16.88;91.27;100824.84;5014468;28;20206;-80
2023/09/16 07:57:29;;;;;;;7.53;6.83;;;;;;;17.02;90.37;100832.56;5016221;28;20617;-80
2023/09/16 07:59:56;;;;;;;7.83;7.03;;;;;;;17.11;88.58;100830.94;5016156;28;20200;-79
2023/09/16 08:02:23;;;;;;;7.70;7.03;;;;;;;17.27;88.69;100841.19;5009870;28;20201;-79
2023/09/16 08:04:50;;;;;;;7.43;6.70;;;;;;;17.43;87.91;100833.47;5009758;28;20216;-80
2023/09/16 08:07:16;;;;;;;7.03;6.40;;;;;;;17.63;87.66;100842.44;5018528;28;20235;-79
2023/09/16 08:09:43;;;;;;;6.70;6.00;;;;;;;17.84;87.19;100843.25;5018958;28;20243;-80
2023/09/16 08:12:09;;;;;;;6.57;5.93;;;;;;;18.02;85.78;100833.47;5011948;28;20226;-80
2023/09/16 08:14:36;;;;;;;5.77;5.23;;;;;;;18.19;83.75;100840.00;5008685;28;20760;-80
2023/09/16 08:17:04;;;;;;;5.83;5.10;;;;;;;18.32;82.33;100835.19;5010311;28;20728;-79
2023/09/16 08:19:31;;;;;;;7.20;5.47;;;;;;;18.44;81.17;100840.44;5011584;28;20579;-79
2023/09/16 08:21:57;;;;;;;5.50;5.00;;;;;;;18.57;80.29;100833.75;5011266;28;20209;-79
2023/09/16 08:24:24;;;;;;;6.70;5.97;;;;;;;18.72;79.55;100839.56;5009688;28;20222;-79
2023/09/16 08:26:51;;;;;;;5.20;4.73;;;;;;;18.89;78.69;100837.97;5014602;28;20226;-80
2023/09/16 08:29:17;;;;;;;5.40;4.90;;;;;;;19.07;78.31;100838.91;5008487;28;20208;-79
2023/09/16 08:31:44;;;;;;;7.13;4.73;;;;;;;19.24;76.53;100845.41;5011721;28;20207;-79
2023/09/16 08:34:12;;;;;;;5.30;4.80;;;;;;;19.37;76.14;100833.25;5014249;28;20591;-79
2023/09/16 08:36:38;;;;;;;5.90;4.63;;;;;;;19.53;75.63;100834.47;5008368;28;20216;-78
2023/09/16 08:39:05;;;;;;;5.17;4.77;;;;;;;19.64;74.79;100837.00;5013963;28;20687;-79
2023/09/16 08:41:38;;;;;;;6.13;4.73;;;;;;;19.79;74.64;100827.38;5013955;28;20206;-79
2023/09/16 08:44:06;;;;;;;6.15;5.00;;;;;;;19.94;74.41;100831.25;5011430;28;20209;-78
2023/09/16 08:46:37;;;;;;;6.60;5.30;;;;;;;20.09;73.81;100827.00;5013214;28;20216;-79
2023/09/16 08:49:07;;;;;;;5.00;4.50;;;;;;;20.22;73.40;100831.19;5008735;28;20211;-78
2023/09/16 08:51:39;;;;;;;5.65;4.35;;;;;;;20.35;72.30;100815.41;5009380;28;20879;-80
2023/09/16 08:54:08;;;;;;;4.70;4.03;;;;;;;20.51;72.45;100820.13;5012797;28;20221;-79
2023/09/16 08:56:36;;;;;;;6.15;4.47;;;;;;;20.64;71.48;100810.59;5012501;28;20214;-79
2023/09/16 08:59:02;;;;;;;4.75;4.30;;;;;;;20.78;70.73;100818.13;5013579;28;20214;-79
2023/09/16 09:01:29;;;;;;;5.78;4.13;;;;;;;20.95;70.22;100813.69;5015120;28;20205;-78
2023/09/16 09:03:59;;;;;;;4.80;4.40;;;;;;;21.12;69.03;100809.22;5008965;28;20198;-79
2023/09/16 09:06:27;;;;;;;4.63;3.83;;;;;;;21.24;68.71;100813.38;5009965;28;20207;-80
2023/09/16 09:08:55;;;;;;;6.30;4.07;;;;;;;21.38;67.26;100814.59;5024481;28;20572;-79
2023/09/16 09:11:23;;;;;;;3.72;3.42;;;;;;;21.50;67.60;100823.31;5009039;28;20230;-79
2023/09/16 09:13:50;;;;;;;5.05;3.72;;;;;;;21.65;67.11;100813.53;5014785;28;20210;-79
2023/09/16 09:16:19;;;;;;;7.00;3.92;;;;;;;21.75;66.13;100816.94;5005856;28;20623;-79
2023/09/16 09:18:47;;;;;;;4.43;3.90;;;;;;;21.86;66.00;100813.91;5012141;28;20222;-79
2023/09/16 09:21:15;;;;;;;3.53;3.22;;;;;;;21.99;66.14;100818.88;5012067;28;20235;-79
2023/09/16 09:23:41;;;;;;;4.35;3.55;;;;;;;22.11;65.56;100802.13;5012280;28;20226;-79
2023/09/16 09:26:10;;;;;;;4.10;3.58;;;;;;;22.22;65.44;100800.09;5012834;28;20210;-78
2023/09/16 09:28:37;;;;;;;3.90;3.60;;;;;;;22.33;64.49;100811.47;5014090;28;20225;-79
2023/09/16 09:31:04;;;;;;;5.07;4.15;;;;;;;22.41;63.32;100807.91;5007471;28;20226;-80
2023/09/16 09:33:31;;;;;;;5.15;3.65;;;;;;;22.47;62.49;100807.22;5005796;28;20202;-79
2023/09/16 09:36:11;;;;;;;3.72;3.40;;;;;;;22.59;63.23;100807.72;5016218;28;20209;-79
2023/09/16 09:38:40;;;;;;;4.03;3.55;;;;;;;22.68;63.00;100810.28;5010477;28;20569;-80
2023/09/16 09:41:06;;;;;;;4.32;3.88;;;;;;;22.75;62.92;100811.25;5001149;28;20198;-80
2023/09/16 09:43:34;;;;;;;3.67;3.30;;;;;;;22.82;62.44;100806.03;5008174;28;20211;-79
2023/09/16 09:46:02;;;;;;;5.25;3.65;;;;;;;22.89;61.99;100809.75;5011110;28;20226;-79
2023/09/16 09:48:29;;;;;;;4.47;4.05;;;;;;;22.92;61.56;100805.84;5005953;28;20237;-80
2023/09/16 09:50:56;;;;;;;4.13;3.80;;;;;;;22.95;61.10;100798.19;5011918;28;20713;-79
2023/09/16 09:53:22;;;;;;;3.90;3.60;;;;;;;23.00;60.92;100792.25;5011490;28;20215;-79
2023/09/16 09:55:49;;;;;;;4.50;3.58;;;;;;;23.06;60.64;100789.69;5012217;28;20618;-79
2023/09/16 09:58:15;;;;;;;4.68;3.45;;;;;;;23.16;60.39;100792.19;5018331;28;20248;-79
2023/09/16 10:00:48;;;;;;;3.85;3.55;;;;;;;23.26;60.75;100786.56;5013081;28;20219;-81
2023/09/16 10:03:15;;;;;;;3.58;3.28;;;;;;;23.32;60.08;100788.56;5017682;28;20260;-81
2023/09/16 10:05:41;;;;;;;3.60;3.30;;;;;;;23.35;59.50;100778.19;5012358;28;20207;-80
2023/09/16 10:08:08;;;;;;;3.75;3.45;;;;;;;23.40;58.69;100778.50;5019934;28;20222;-80
2023/09/16 10:10:36;;;;;;;3.78;3.42;;;;;;;23.44;58.67;100779.84;5014542;28;20751;-80
2023/09/16 10:13:03;;;;;;;5.05;3.60;;;;;;;23.49;57.71;100777.44;5013648;28;20702;-80
2023/09/16 10:15:32;;;;;;;7.60;3.92;;;;;;;23.57;58.06;100778.47;5009359;28;20205;-80
2023/09/16 10:18:02;;;;;;;5.55;2.90;;;;;;;23.65;57.93;100781.09;5013206;28;20227;-80
2023/09/16 10:20:31;;;;;;;3.95;3.22;;;;;;;23.74;57.21;100774.63;5012827;28;20211;-80
2023/09/16 10:22:58;;;;;;;4.35;3.50;;;;;;;23.81;56.81;100775.59;5011915;28;20205;-80
2023/09/16 10:25:28;;;;;;;3.70;3.25;;;;;;;23.85;56.34;100780.47;5020009;28;20218;-80
2023/09/16 10:27:59;;;;;;;4.88;3.28;;;;;;;23.94;56.62;100780.44;5011967;28;20276;-80
2023/09/16 10:30:26;;;;;;;5.10;3.25;;;;;;;24.01;56.32;100781.38;5008150;28;20273;-80
2023/09/16 10:32:53;;;;;;;4.03;3.15;;;;;;;24.06;56.20;100777.09;5016596;28;20210;-80
2023/09/16 10:35:21;;;;;;;3.17;2.88;;;;;;;24.14;55.87;100768.91;5016902;28;20221;-81
2023/09/16 10:37:52;;;;;;;3.70;3.22;;;;;;;24.22;55.21;100771.53;5013871;28;20218;-80
2023/09/16 10:40:19;;;;;;;3.30;2.88;;;;;;;24.30;55.65;100769.81;5012302;28;20206;-80
2023/09/16 10:42:47;;;;;;;4.53;3.10;;;;;;;24.35;54.76;100765.53;5010405;28;20637;-80
2023/09/16 10:45:17;;;;;;;3.33;2.58;;;;;;;24.33;53.94;100764.88;5014927;28;20276;-80
2023/09/16 10:47:45;;;;;;;4.15;3.10;;;;;;;24.38;53.92;100758.84;5017475;28;20256;-80
2023/09/16 10:50:12;;;;;;;3.22;3.03;;;;;;;24.42;54.19;100758.28;5016164;28;20198;-81
2023/09/16 10:52:42;;;;;;;5.35;3.15;;;;;;;24.51;54.70;100769.97;5011327;28;20261;-80
2023/09/16 10:55:14;;;;;;;3.25;2.95;;;;;;;24.60;53.45;100765.28;5015868;28;20713;-80
2023/09/16 10:57:48;;;;;;;3.83;2.70;;;;;;;24.66;53.91;100762.66;5011854;28;20301;-80
2023/09/16 11:00:21;;;;;;;3.78;3.38;;;;;;;24.73;54.53;100749.13;5021613;28;20210;-80
2023/09/16 11:02:56;;;;;;;3.33;2.58;;;;;;;24.80;52.71;100758.25;5015856;28;20199;-80
2023/09/16 11:05:23;;;;;;;4.07;3.03;;;;;;;24.77;52.45;100754.03;5018558;28;20214;-80
2023/09/16 11:07:51;;;;;;;3.00;2.70;;;;;;;24.81;53.21;100754.50;5017613;28;20237;-80
2023/09/16 11:10:18;;;;;;;3.08;2.78;;;;;;;24.84;53.68;100760.44;5016458;28;20681;-80
2023/09/16 11:12:45;;;;;;;3.92;2.72;;;;;;;24.89;52.76;100755.28;5014530;28;20230;-81
2023/09/16 11:15:12;;;;;;;3.10;2.80;;;;;;;24.93;53.12;100753.00;5009139;28;20221;-80
2023/09/16 11:17:39;;;;;;;3.35;2.75;;;;;;;24.99;52.89;100746.84;5008123;28;21404;-80
2023/09/16 11:20:13;;;;;;;3.13;2.88;;;;;;;25.05;53.10;100743.38;5015145;28;20203;-81